LJPZ METAR and TAF | Updated Today

LJPZ METAR

Portoroz Airport

Observation time: 13 min. ago

LJPZ 052030Z 08006KT 9999 FEW050 BKN180 03/M09 Q1034

Need help? Read our tutorial on how to read METARs or read the parsed version below.

Portoroz Airport (LJPZ) METAR

  • Weather conditions on Sun, 05 Feb 2023 20:30:00 +0000 (13 min. ago):
  • Present conditions: Dry
  • Clouds: A few at 1524 meters; broken sky at 5486 meters
  • Visibility: Greater than 10 km
  • Wind: 80 degrees at 6 knots
  • Temperature: 3 celsius
  • Dew point: -9 celsius
  • Pressure: 1034 millibars
  • Remarks: None


Useful to know...

LJPZ TAF

Portoroz Airport

TAF LJPZ 051700Z 0518/0603 10005KT 9999 SCT050
Observation time: 3:43 hr. ago
Need help? Read our tutorial on how to read TAFs or read the parsed version below.

Parsed version of TAF for Portoroz Airport (LJPZ)

  • From 05 February at 18:00 UTC, to day 06 of the month at 03:00 UTC
  • Clouds: Scattered at 1524 meters
  • Visibility: Greater than 10 km
  • Wind: 100 degrees at 5